createdAt,value
2019-04-21T00:00:39.704Z,44.21
2019-04-21T00:01:44.422Z,44.50
2019-04-21T00:02:42.378Z,44.31
2019-04-21T00:03:47.686Z,44.79
2019-04-21T00:04:50.872Z,45.07
2019-04-21T00:05:58.928Z,43.92
2019-04-21T00:06:56.654Z,44.50
2019-04-21T00:08:05.019Z,44.19
2019-04-21T00:09:02.393Z,44.38
2019-04-21T00:09:58.410Z,44.67
2019-04-21T00:11:02.942Z,44.19
2019-04-21T00:11:56.947Z,44.95
2019-04-21T00:12:52.277Z,44.57
2019-04-21T00:13:53.835Z,45.05
2019-04-21T00:14:51.342Z,44.95
2019-04-21T00:15:46.737Z,45.05
2019-04-21T00:16:45.456Z,44.88
2019-04-21T00:17:38.975Z,44.50
2019-04-21T00:18:47.922Z,44.50
2019-04-21T00:19:39.146Z,44.76
2019-04-21T00:20:43.914Z,44.69
2019-04-21T00:21:45.016Z,45.24
2019-04-21T00:22:50.539Z,45.72
2019-04-21T00:23:55.280Z,46.01
2019-04-21T00:24:48.783Z,45.62
2019-04-21T00:25:47.852Z,45.43
2019-04-21T00:26:57.324Z,45.53
2019-04-21T00:27:50.119Z,46.01
2019-04-21T00:29:06.318Z,46.01
2019-04-21T00:29:58.280Z,46.01
2019-04-21T00:30:57.028Z,46.39
2019-04-21T00:31:51.393Z,46.87
2019-04-21T00:32:49.994Z,46.87
2019-04-21T00:33:40.964Z,46.87
2019-04-21T00:34:36.443Z,46.67
2019-04-21T00:35:45.097Z,47.06
2019-04-21T00:36:47.234Z,46.77
2019-04-21T00:37:53.475Z,46.77
2019-04-21T00:39:09.954Z,46.77
2019-04-21T00:40:00.980Z,46.67
2019-04-21T00:41:01.753Z,46.77
2019-04-21T00:41:55.846Z,46.67
2019-04-21T00:42:55.672Z,47.44
2019-04-21T00:43:49.085Z,48.02
2019-04-21T00:44:52.000Z,48.68
2019-04-21T00:45:48.739Z,47.53
2019-04-21T00:46:52.129Z,48.02
2019-04-21T00:47:58.781Z,47.63
2019-04-21T00:48:59.220Z,47.82
2019-04-21T00:49:57.807Z,48.02
2019-04-21T00:51:10.938Z,47.53
2019-04-21T00:52:07.146Z,48.18
2019-04-21T00:54:04.415Z,47.89
2019-04-21T00:55:10.977Z,47.99
2019-04-21T00:55:59.172Z,48.18
2019-04-21T00:58:02.034Z,47.89
2019-04-21T00:58:59.925Z,48.18
2019-04-21T01:00:00.930Z,48.18
2019-04-21T01:00:58.903Z,48.18
2019-04-21T01:01:55.472Z,47.80
2019-04-21T01:02:57.553Z,48.09
2019-04-21T01:03:58.472Z,48.28
2019-04-21T01:05:01.653Z,48.28
2019-04-21T01:05:57.314Z,48.28
2019-04-21T01:06:54.470Z,48.28
2019-04-21T01:07:50.305Z,48.09
2019-04-21T01:08:55.470Z,48.66
2019-04-21T01:09:48.518Z,48.57
2019-04-21T01:10:48.966Z,48.85
2019-04-21T01:11:59.339Z,48.38
2019-04-21T01:12:56.121Z,49.04
2019-04-21T01:14:05.832Z,49.14
2019-04-21T01:15:59.109Z,48.66
2019-04-21T01:17:00.369Z,48.66
2019-04-21T01:19:02.205Z,48.75
2019-04-21T01:19:57.475Z,48.28
2019-04-21T01:21:45.881Z,49.04
2019-04-21T01:22:45.792Z,48.75
2019-04-21T01:24:43.426Z,48.85
2019-04-21T01:25:44.893Z,48.75
2019-04-21T01:28:02.242Z,48.66
2019-04-21T01:29:00.097Z,48.47
2019-04-21T01:31:11.111Z,49.78
2019-04-21T01:32:10.457Z,49.69
2019-04-21T01:34:15.098Z,49.88
2019-04-21T01:35:09.886Z,50.26
2019-04-21T01:36:08.199Z,49.88
2019-04-21T01:37:03.936Z,49.88
2019-04-21T01:38:19.110Z,50.45
2019-04-21T01:39:14.989Z,50.35
2019-04-21T01:40:16.307Z,50.64
2019-04-21T01:41:18.038Z,50.35
2019-04-21T01:42:11.358Z,49.88
2019-04-21T01:43:07.998Z,49.40
2019-04-21T01:44:22.486Z,49.59
2019-04-21T01:45:12.492Z,49.98
2019-04-21T01:46:09.243Z,49.88
2019-04-21T01:47:06.117Z,49.88
2019-04-21T01:48:06.560Z,49.85
2019-04-21T01:49:04.622Z,49.59
2019-04-21T01:49:59.306Z,49.85
2019-04-21T01:51:05.336Z,49.85
2019-04-21T01:52:20.816Z,50.71
2019-04-21T01:53:22.568Z,50.52
2019-04-21T01:54:18.437Z,51.19
2019-04-21T01:55:12.694Z,51.29
2019-04-21T01:56:11.877Z,51.19
2019-04-21T01:57:10.426Z,51.19
2019-04-21T01:58:02.333Z,51.38
2019-04-21T01:59:00.802Z,51.67
2019-04-21T02:00:00.971Z,51.86
2019-04-21T02:01:05.662Z,51.48
2019-04-21T02:02:10.749Z,51.95
2019-04-21T02:03:28.610Z,51.57
2019-04-21T02:04:06.882Z,51.95
2019-04-21T02:05:18.808Z,51.86
2019-04-21T02:06:18.461Z,51.98
2019-04-21T02:07:13.157Z,51.67
2019-04-21T02:08:09.856Z,52.05
2019-04-21T02:09:04.021Z,51.31
2019-04-21T02:10:11.115Z,51.38
2019-04-21T02:11:12.523Z,50.90
2019-04-21T02:12:08.774Z,50.81
2019-04-21T02:13:09.038Z,50.52
2019-04-21T02:14:11.341Z,51.29
2019-04-21T02:15:11.350Z,51.48
2019-04-21T02:16:13.736Z,51.86
2019-04-21T02:17:12.260Z,51.76
2019-04-21T02:18:09.186Z,51.86
2019-04-21T02:19:04.368Z,51.83
2019-04-21T02:20:05.415Z,52.59
2019-04-21T02:20:57.076Z,52.40
2019-04-21T02:22:00.707Z,52.69
2019-04-21T02:23:22.318Z,52.50
2019-04-21T02:24:18.818Z,52.24
2019-04-21T02:26:09.824Z,52.62
2019-04-21T02:27:08.629Z,52.15
2019-04-21T02:28:17.617Z,52.53
2019-04-21T02:29:31.399Z,52.62
2019-04-21T02:30:18.315Z,52.62
2019-04-21T02:31:20.945Z,52.43
2019-04-21T02:32:18.373Z,52.43
2019-04-21T02:33:27.044Z,52.69
2019-04-21T02:35:30.404Z,53.08
2019-04-21T02:36:30.819Z,53.45
2019-04-21T02:38:28.032Z,53.17
2019-04-21T02:41:18.290Z,53.84
2019-04-21T02:43:18.759Z,53.91
2019-04-21T02:44:24.025Z,54.19
2019-04-21T02:45:17.101Z,53.91
2019-04-21T02:46:27.424Z,54.19
2019-04-21T02:47:19.081Z,54.10
2019-04-21T02:48:22.664Z,53.91
2019-04-21T02:49:22.812Z,54.29
2019-04-21T02:50:19.012Z,54.00
2019-04-21T02:51:23.409Z,54.00
2019-04-21T02:52:27.443Z,54.86
2019-04-21T02:53:21.132Z,55.43
2019-04-21T02:54:42.096Z,55.15
2019-04-21T02:56:20.409Z,55.05
2019-04-21T02:58:17.880Z,55.15
2019-04-21T02:59:17.228Z,55.34
2019-04-21T03:00:29.059Z,55.43
2019-04-21T03:01:23.901Z,55.34
2019-04-21T03:02:17.217Z,55.43
2019-04-21T03:03:25.908Z,55.91
2019-04-21T03:05:24.331Z,55.53
2019-04-21T03:06:20.701Z,56.20
2019-04-21T03:08:21.981Z,55.34
2019-04-21T03:09:18.264Z,55.34
2019-04-21T03:10:20.571Z,55.15
2019-04-21T03:12:22.321Z,55.05
2019-04-21T03:13:21.670Z,54.57
2019-04-21T03:14:24.966Z,54.00
2019-04-21T03:15:25.565Z,54.00
2019-04-21T03:16:23.511Z,53.81
2019-04-21T03:17:14.197Z,54.19
2019-04-21T03:18:19.593Z,54.00
2019-04-21T03:19:20.382Z,54.00
2019-04-21T03:20:17.429Z,54.57
2019-04-21T03:21:15.450Z,55.15
2019-04-21T03:22:20.400Z,55.34
2019-04-21T03:23:23.398Z,55.05
2019-04-21T03:25:25.289Z,55.62
2019-04-21T03:26:24.909Z,55.43
2019-04-21T03:28:16.292Z,54.77
2019-04-21T03:30:53.094Z,54.48
2019-04-21T03:31:34.772Z,55.15
2019-04-21T03:35:53.509Z,53.53
2019-04-21T03:37:16.961Z,52.95
2019-04-21T03:38:20.868Z,54.00
2019-04-21T03:39:07.620Z,53.53
2019-04-21T03:41:12.060Z,53.72
2019-04-21T03:42:21.612Z,54.00
2019-04-21T03:43:12.642Z,53.91
2019-04-21T03:45:20.552Z,54.00
2019-04-21T03:46:08.575Z,54.00
2019-04-21T03:47:20.830Z,54.10
2019-04-21T03:48:09.825Z,54.10
2019-04-21T03:49:19.264Z,54.00
2019-04-21T03:50:11.409Z,54.10
2019-04-21T03:51:12.511Z,53.72
2019-04-21T03:53:09.546Z,54.10
2019-04-21T03:54:13.791Z,54.10
2019-04-21T03:55:35.827Z,54.29
2019-04-21T03:56:23.269Z,54.57
2019-04-21T03:57:19.971Z,54.48
2019-04-21T03:58:25.926Z,54.38
2019-04-21T03:59:14.195Z,54.67
2019-04-21T04:00:21.632Z,54.48
2019-04-21T04:01:11.362Z,54.57
2019-04-21T04:02:16.345Z,54.57
2019-04-21T04:03:35.032Z,54.48
2019-04-21T04:05:11.048Z,54.48
2019-04-21T04:07:11.404Z,54.57
2019-04-21T04:08:21.794Z,53.91
2019-04-21T04:09:31.380Z,54.19
2019-04-21T04:10:11.854Z,54.10
2019-04-21T04:12:06.930Z,54.00
2019-04-21T04:13:15.674Z,54.38
2019-04-21T04:14:12.865Z,54.19
2019-04-21T04:15:12.384Z,54.19
2019-04-21T04:16:15.400Z,54.00
2019-04-21T04:17:11.838Z,54.00
2019-04-21T04:18:23.404Z,54.19
2019-04-21T04:19:09.290Z,54.10
2019-04-21T04:20:12.270Z,54.00
2019-04-21T04:21:15.073Z,54.10
2019-04-21T04:23:24.796Z,54.19
2019-04-21T04:25:15.466Z,53.91
2019-04-21T04:26:13.063Z,53.81
2019-04-21T04:29:12.294Z,54.86
2019-04-21T04:30:19.756Z,54.67
2019-04-21T04:31:22.287Z,55.24
2019-04-21T04:32:07.995Z,55.24
2019-04-21T04:33:07.960Z,55.15
2019-04-21T04:36:15.595Z,54.57
2019-04-21T04:37:12.311Z,54.48
2019-04-21T04:38:19.619Z,54.57
2019-04-21T04:39:17.599Z,54.29
2019-04-21T04:40:09.233Z,54.10
2019-04-21T04:41:14.565Z,54.57
2019-04-21T04:44:17.772Z,54.19
2019-04-21T04:47:12.337Z,54.10
2019-04-21T04:48:09.171Z,54.19
2019-04-21T04:49:11.449Z,54.07
2019-04-21T04:50:19.740Z,54.45
2019-04-21T04:51:01.379Z,54.45
2019-04-21T04:52:24.668Z,55.02
2019-04-21T04:53:12.005Z,55.50
2019-04-21T04:54:06.261Z,55.43
2019-04-21T04:56:07.691Z,55.21
2019-04-21T04:59:22.646Z,56.07
2019-04-21T05:00:14.298Z,55.69
2019-04-21T05:01:14.674Z,55.62
2019-04-21T05:02:26.478Z,55.43
2019-04-21T05:03:00.979Z,55.62
2019-04-21T05:04:10.321Z,55.15
2019-04-21T05:06:19.366Z,55.43
2019-04-21T05:07:07.122Z,55.24
2019-04-21T05:08:08.444Z,54.48
2019-04-21T05:09:11.015Z,55.24
2019-04-21T05:09:59.532Z,55.05
2019-04-21T05:11:07.930Z,55.53
2019-04-21T05:12:07.757Z,54.77
2019-04-21T05:12:58.770Z,54.48
2019-04-21T05:14:17.142Z,54.38
2019-04-21T05:15:10.133Z,54.29
2019-04-21T05:16:02.162Z,54.00
2019-04-21T05:17:02.299Z,54.10
2019-04-21T05:18:15.328Z,54.19
2019-04-21T05:20:08.626Z,54.10
2019-04-21T05:21:20.251Z,53.91
2019-04-21T05:22:05.292Z,53.43
2019-04-21T05:22:54.265Z,53.93
2019-04-21T05:23:51.029Z,54.19
2019-04-21T05:24:52.385Z,53.81
2019-04-21T05:25:48.662Z,54.50
2019-04-21T05:26:47.997Z,54.10
2019-04-21T05:27:47.921Z,54.13
2019-04-21T05:28:44.605Z,54.22
2019-04-21T05:29:58.725Z,54.32
2019-04-21T05:30:55.447Z,54.22
2019-04-21T05:31:58.388Z,54.13
2019-04-21T05:32:52.578Z,54.89
2019-04-21T05:33:57.678Z,54.22
2019-04-21T05:34:56.922Z,54.99
2019-04-21T05:36:50.554Z,56.13
2019-04-21T05:37:47.307Z,54.99
2019-04-21T05:38:47.742Z,54.32
2019-04-21T05:39:51.259Z,54.03
2019-04-21T05:40:43.652Z,53.74
2019-04-21T05:41:42.988Z,53.74
2019-04-21T05:42:50.966Z,53.84
2019-04-21T05:43:51.738Z,53.55
2019-04-21T05:44:58.126Z,54.03
2019-04-21T05:45:58.531Z,53.55
2019-04-21T05:46:56.453Z,54.13
2019-04-21T05:47:58.472Z,53.93
2019-04-21T05:48:51.913Z,53.17
2019-04-21T05:49:49.852Z,53.08
2019-04-21T05:50:50.905Z,53.17
2019-04-21T05:51:44.307Z,53.36
2019-04-21T05:52:45.941Z,53.08
2019-04-21T05:53:55.929Z,53.74
2019-04-21T05:54:59.573Z,53.74
2019-04-21T05:56:48.850Z,53.00
2019-04-21T05:57:48.162Z,52.53
2019-04-21T05:58:48.468Z,52.12
2019-04-21T05:59:51.612Z,52.62
2019-04-21T06:01:07.872Z,52.34
2019-04-21T06:02:03.092Z,51.76
2019-04-21T06:02:57.695Z,52.53
2019-04-21T06:04:00.223Z,52.34
2019-04-21T06:06:00.321Z,52.24
2019-04-21T06:06:56.947Z,52.53
2019-04-21T06:07:53.755Z,52.43
2019-04-21T06:08:49.980Z,52.43
2019-04-21T06:09:57.319Z,52.34
2019-04-21T06:10:53.921Z,52.43
2019-04-21T06:11:51.423Z,52.43
2019-04-21T06:12:59.625Z,52.53
2019-04-21T06:13:55.087Z,51.57
2019-04-21T06:14:58.430Z,51.95
2019-04-21T06:16:57.156Z,51.67
2019-04-21T06:17:49.163Z,51.48
2019-04-21T06:18:52.984Z,51.38
2019-04-21T06:19:56.919Z,50.90
2019-04-21T06:20:55.073Z,51.00
2019-04-21T06:21:51.571Z,50.52
2019-04-21T06:22:50.791Z,50.43
2019-04-21T06:23:52.135Z,50.33
2019-04-21T06:25:18.634Z,50.35
2019-04-21T06:26:19.866Z,50.45
2019-04-21T06:27:05.328Z,50.24
2019-04-21T06:27:51.132Z,50.81
2019-04-21T06:28:52.550Z,50.64
2019-04-21T06:29:50.305Z,50.35
2019-04-21T06:31:01.546Z,51.41
2019-04-21T06:32:18.749Z,51.50
2019-04-21T06:32:50.852Z,50.35
2019-04-21T06:33:50.829Z,50.45
2019-04-21T06:35:07.306Z,50.16
2019-04-21T06:36:19.799Z,50.64
2019-04-21T06:37:52.267Z,51.12
2019-04-21T06:38:59.626Z,51.70
2019-04-21T06:40:02.502Z,51.79
2019-04-21T06:40:50.121Z,51.70
2019-04-21T06:41:49.167Z,52.55
2019-04-21T06:42:51.452Z,52.65
2019-04-21T06:44:07.565Z,52.55
2019-04-21T06:44:57.495Z,52.46
2019-04-21T06:45:59.016Z,52.26
2019-04-21T06:46:45.994Z,51.89
2019-04-21T06:47:51.248Z,52.46
2019-04-21T06:48:55.426Z,52.26
2019-04-21T06:49:50.278Z,51.60
2019-04-21T06:50:57.140Z,51.05
2019-04-21T06:51:48.180Z,50.57
2019-04-21T06:52:55.013Z,50.48
2019-04-21T06:53:54.232Z,50.29
2019-04-21T06:54:51.098Z,50.57
2019-04-21T06:55:46.710Z,50.86
2019-04-21T06:56:51.665Z,50.86
2019-04-21T06:57:47.372Z,50.29
2019-04-21T06:58:44.611Z,50.09
2019-04-21T06:59:45.243Z,50.38
2019-04-21T07:00:42.454Z,50.95
2019-04-21T07:03:06.202Z,51.34
2019-04-21T07:04:01.752Z,51.62
2019-04-21T07:04:50.532Z,51.53
2019-04-21T07:05:52.773Z,50.86
2019-04-21T07:06:52.106Z,50.86
2019-04-21T07:07:54.930Z,50.48
2019-04-21T07:08:56.715Z,51.91
2019-04-21T07:09:52.986Z,52.01
2019-04-21T07:10:46.459Z,51.53
2019-04-21T07:11:44.353Z,51.65
2019-04-21T07:12:45.015Z,51.91
2019-04-21T07:13:52.931Z,50.79
2019-04-21T07:14:48.249Z,50.50
2019-04-21T07:15:59.813Z,50.98
2019-04-21T07:16:53.147Z,50.19
2019-04-21T07:17:45.404Z,50.60
2019-04-21T07:18:51.261Z,50.31
2019-04-21T07:19:48.442Z,50.89
2019-04-21T07:20:49.167Z,50.60
2019-04-21T07:21:45.565Z,50.50
2019-04-21T07:22:49.214Z,51.17
2019-04-21T07:23:45.970Z,51.75
2019-04-21T07:24:46.161Z,51.27
2019-04-21T07:25:49.322Z,50.60
2019-04-21T07:26:42.707Z,50.02
2019-04-21T07:27:50.714Z,50.41
2019-04-21T07:28:47.844Z,49.64
2019-04-21T07:29:47.413Z,49.64
2019-04-21T07:30:43.950Z,49.64
2019-04-21T07:31:57.252Z,49.26
2019-04-21T07:32:51.340Z,49.45
2019-04-21T07:33:53.405Z,49.84
2019-04-21T07:34:49.867Z,48.78
2019-04-21T07:35:43.282Z,48.59
2019-04-21T07:36:53.379Z,49.84
2019-04-21T07:37:41.567Z,50.21
2019-04-21T07:38:41.291Z,50.50
2019-04-21T07:39:38.914Z,50.79
2019-04-21T07:40:38.960Z,49.74
2019-04-21T07:41:39.763Z,50.70
2019-04-21T07:42:39.973Z,50.41
2019-04-21T07:43:38.103Z,49.84
2019-04-21T07:44:34.976Z,50.91
2019-04-21T07:45:36.699Z,51.48
2019-04-21T07:46:37.236Z,50.72
2019-04-21T07:47:44.504Z,49.76
2019-04-21T07:48:43.270Z,48.13
2019-04-21T07:49:48.819Z,48.23
2019-04-21T07:50:39.142Z,49.00
2019-04-21T07:51:47.954Z,48.90
2019-04-21T07:52:49.091Z,49.66
2019-04-21T07:53:49.445Z,49.66
2019-04-21T07:54:44.378Z,48.90
2019-04-21T07:56:28.388Z,48.90
2019-04-21T07:57:39.164Z,49.19
2019-04-21T07:58:47.705Z,49.86
2019-04-21T07:59:52.411Z,50.81
2019-04-21T08:00:51.429Z,50.62
2019-04-21T08:01:48.422Z,51.01
2019-04-21T08:02:40.411Z,51.20
2019-04-21T08:03:38.833Z,50.81
2019-04-21T08:04:54.177Z,50.43
2019-04-21T08:05:58.422Z,50.15
2019-04-21T08:06:40.595Z,50.43
2019-04-21T08:07:52.166Z,50.52
2019-04-21T08:08:42.284Z,51.01
2019-04-21T08:09:42.663Z,49.79
2019-04-21T08:10:39.187Z,50.26
2019-04-21T08:11:36.670Z,50.56
2019-04-21T08:12:36.294Z,50.84
2019-04-21T08:14:57.535Z,51.51
2019-04-21T08:15:39.947Z,51.61
2019-04-21T08:16:39.660Z,52.56
2019-04-21T08:17:42.610Z,53.33
2019-04-21T08:18:39.876Z,52.75
2019-04-21T08:19:35.892Z,51.79
2019-04-21T08:20:38.271Z,51.70
2019-04-21T08:21:46.234Z,51.51
2019-04-21T08:22:41.242Z,50.46
2019-04-21T08:23:38.448Z,49.88
2019-04-21T08:24:47.015Z,49.60
2019-04-21T08:25:45.858Z,49.40
2019-04-21T08:26:45.032Z,48.93
2019-04-21T08:27:42.459Z,49.40
2019-04-21T08:28:43.752Z,49.88
2019-04-21T08:29:40.850Z,50.26
2019-04-21T08:30:36.590Z,50.56
2019-04-21T08:31:49.931Z,50.65
2019-04-21T08:32:57.249Z,49.60
2019-04-21T08:34:43.254Z,49.88
2019-04-21T08:36:33.917Z,48.54
2019-04-21T08:37:39.920Z,48.73
2019-04-21T08:38:41.285Z,48.47
2019-04-21T08:39:49.409Z,49.43
2019-04-21T08:41:39.564Z,48.85
2019-04-21T08:42:43.252Z,48.38
2019-04-21T08:43:43.098Z,48.18
2019-04-21T08:44:45.193Z,48.38
2019-04-21T08:46:44.659Z,49.81
2019-04-21T08:48:39.308Z,49.43
2019-04-21T08:49:38.720Z,50.10
2019-04-21T08:50:41.574Z,50.48
2019-04-21T08:51:41.292Z,50.29
2019-04-21T08:53:44.185Z,48.28
2019-04-21T08:54:36.788Z,48.57
2019-04-21T08:55:40.021Z,48.75
2019-04-21T08:56:33.905Z,47.03
2019-04-21T08:57:41.441Z,46.75
2019-04-21T08:58:41.505Z,47.03
2019-04-21T08:59:36.340Z,48.11
2019-04-21T09:00:38.488Z,48.57
2019-04-21T09:01:38.337Z,47.99
2019-04-21T09:02:43.236Z,48.02
2019-04-21T09:03:37.145Z,47.63
2019-04-21T09:04:33.434Z,46.17
2019-04-21T09:05:35.600Z,45.04
2019-04-21T09:06:58.878Z,45.52
2019-04-21T09:07:41.407Z,46.00
2019-04-21T09:08:33.125Z,46.86
2019-04-21T09:09:34.986Z,47.15
2019-04-21T09:10:35.657Z,46.19
2019-04-21T09:11:37.569Z,45.90
2019-04-21T09:13:35.596Z,45.90
2019-04-21T09:14:39.568Z,45.04
2019-04-21T09:15:30.919Z,45.52
2019-04-21T09:16:31.229Z,45.33
2019-04-21T09:17:28.610Z,45.04
2019-04-21T09:18:29.863Z,45.52
2019-04-21T09:19:45.642Z,46.00
2019-04-21T09:20:38.801Z,46.96
2019-04-21T09:21:31.772Z,46.19
2019-04-21T09:22:30.465Z,46.29
2019-04-21T09:23:36.525Z,46.29
2019-04-21T09:24:39.054Z,44.95
2019-04-21T09:25:40.804Z,43.91
2019-04-21T09:26:29.417Z,42.96
2019-04-21T09:27:35.628Z,42.96
2019-04-21T09:28:25.638Z,40.84
2019-04-21T09:29:25.316Z,39.79
2019-04-21T09:30:15.172Z,39.50
2019-04-21T09:31:19.184Z,40.08
2019-04-21T09:32:21.321Z,39.31
2019-04-21T09:33:14.117Z,39.23
2019-04-21T09:34:21.069Z,40.29
2019-04-21T09:35:15.465Z,41.16
2019-04-21T09:36:18.058Z,41.44
2019-04-21T09:37:26.845Z,40.96
2019-04-21T09:38:22.672Z,39.33
2019-04-21T09:39:18.276Z,39.14
2019-04-21T09:40:14.969Z,39.33
2019-04-21T09:41:17.491Z,38.85
2019-04-21T09:42:13.626Z,38.37
2019-04-21T09:43:18.696Z,36.84
2019-04-21T09:44:17.162Z,35.78
2019-04-21T09:45:14.346Z,35.69
2019-04-21T09:46:13.917Z,35.69
2019-04-21T09:47:14.281Z,37.05
2019-04-21T09:48:17.571Z,35.51
2019-04-21T09:49:15.733Z,35.22
2019-04-21T09:50:13.477Z,35.22
2019-04-21T09:51:13.076Z,35.51
2019-04-21T09:52:18.815Z,35.22
2019-04-21T09:53:22.200Z,36.28
2019-04-21T09:54:17.451Z,37.72
2019-04-21T09:55:17.327Z,36.66
2019-04-21T09:56:16.639Z,36.47
2019-04-21T09:57:24.299Z,35.24
2019-04-21T09:58:21.821Z,35.24
2019-04-21T09:59:18.040Z,34.86
2019-04-21T10:00:15.231Z,32.75
2019-04-21T10:01:20.434Z,32.46
2019-04-21T10:02:19.319Z,32.84
2019-04-21T10:03:14.017Z,34.28
2019-04-21T10:04:11.996Z,35.43
2019-04-21T10:05:12.305Z,36.58
2019-04-21T10:06:11.578Z,33.99
2019-04-21T10:07:23.708Z,32.55
2019-04-21T10:08:12.417Z,31.02
2019-04-21T10:09:14.405Z,31.03
2019-04-21T10:10:10.785Z,30.17
2019-04-21T10:11:11.851Z,30.25
2019-04-21T10:12:11.828Z,29.88
2019-04-21T10:13:10.686Z,28.15
2019-04-21T10:14:11.623Z,28.53
2019-04-21T10:15:10.717Z,29.97
2019-04-21T10:16:10.869Z,30.17
2019-04-21T10:17:10.879Z,31.13
2019-04-21T10:18:10.805Z,32.09
2019-04-21T10:19:11.201Z,33.53
2019-04-21T10:20:11.612Z,32.47
2019-04-21T10:21:17.439Z,32.38
2019-04-21T10:23:13.787Z,32.38
2019-04-21T10:24:13.692Z,30.65
2019-04-21T10:26:18.685Z,30.55
2019-04-21T10:27:17.444Z,29.11
2019-04-21T10:29:25.520Z,30.08
2019-04-21T10:30:22.405Z,29.41
2019-04-21T10:32:15.332Z,27.87
2019-04-21T10:33:14.428Z,28.07
2019-04-21T10:35:20.425Z,29.32
2019-04-21T10:36:17.670Z,29.32
2019-04-21T10:38:30.212Z,31.05
2019-04-21T10:39:21.771Z,29.99
2019-04-21T10:40:21.370Z,29.61
2019-04-21T10:41:21.552Z,29.03
2019-04-21T10:42:21.479Z,28.36
2019-04-21T10:43:23.677Z,28.66
2019-04-21T10:44:21.129Z,29.81
2019-04-21T10:45:21.213Z,29.72
2019-04-21T10:46:20.915Z,29.72
2019-04-21T10:47:20.834Z,29.33
2019-04-21T10:48:20.983Z,27.98
2019-04-21T10:49:20.685Z,26.93
2019-04-21T10:50:20.610Z,28.18
2019-04-21T10:51:21.222Z,28.47
2019-04-21T10:52:20.464Z,28.85
2019-04-21T10:53:20.860Z,29.04
2019-04-21T10:54:20.315Z,28.95
2019-04-21T10:55:38.984Z,29.14
2019-04-21T10:56:29.138Z,28.93
2019-04-21T10:57:20.153Z,28.84
2019-04-21T10:58:20.323Z,29.52
2019-04-21T10:59:20.445Z,29.32
2019-04-21T11:00:19.870Z,28.95
2019-04-21T11:01:21.053Z,28.66
2019-04-21T11:02:21.013Z,28.85
2019-04-21T11:03:19.647Z,29.14
2019-04-21T11:04:21.874Z,28.37
2019-04-21T11:05:20.743Z,27.42
2019-04-21T11:06:20.858Z,28.47
2019-04-21T11:07:21.570Z,30.39
2019-04-21T11:08:27.951Z,30.29
2019-04-21T11:09:20.080Z,27.89
2019-04-21T11:10:20.358Z,27.04
2019-04-21T11:11:19.620Z,27.23
2019-04-21T11:12:19.815Z,27.71
2019-04-21T11:13:18.912Z,27.81
2019-04-21T11:14:18.833Z,27.33
2019-04-21T11:15:19.027Z,26.56
2019-04-21T11:16:19.200Z,26.46
2019-04-21T11:17:19.550Z,26.36
2019-04-21T11:18:19.784Z,27.42
2019-04-21T11:19:18.466Z,26.75
2019-04-21T11:20:19.207Z,25.69
2019-04-21T11:21:18.759Z,26.46
2019-04-21T11:22:18.907Z,27.04
2019-04-21T11:23:21.189Z,27.91
2019-04-21T11:24:18.267Z,27.51
2019-04-21T11:25:18.034Z,27.04
2019-04-21T11:26:18.110Z,26.09
2019-04-21T11:27:19.122Z,25.99
2019-04-21T11:28:18.646Z,25.42
2019-04-21T11:29:19.060Z,26.09
2019-04-21T11:30:17.814Z,26.28
2019-04-21T11:31:18.816Z,26.10
2019-04-21T11:32:17.527Z,26.39
2019-04-21T11:33:17.463Z,25.71
2019-04-21T11:34:17.385Z,26.58
2019-04-21T11:35:17.313Z,26.58
2019-04-21T11:36:17.448Z,26.20
2019-04-21T11:37:17.166Z,25.44
2019-04-21T11:38:21.824Z,25.34
2019-04-21T11:39:27.287Z,26.31
2019-04-21T11:40:19.728Z,26.89
2019-04-21T11:41:19.127Z,26.22
2019-04-21T11:42:17.613Z,25.37
2019-04-21T11:43:17.792Z,25.37
2019-04-21T11:44:16.712Z,25.19
2019-04-21T11:45:16.649Z,25.96
2019-04-21T11:46:16.586Z,25.28
2019-04-21T11:47:16.521Z,24.81
2019-04-21T11:48:16.669Z,23.86
2019-04-21T11:49:16.400Z,23.57
2019-04-21T11:50:17.070Z,24.34
2019-04-21T11:51:17.168Z,24.82
2019-04-21T11:52:16.584Z,24.05
2019-04-21T11:53:16.846Z,23.10
2019-04-21T11:54:17.066Z,23.00
2019-04-21T11:55:16.584Z,22.52
2019-04-21T11:56:16.824Z,22.14
2019-04-21T11:57:22.734Z,24.09
2019-04-21T11:58:16.061Z,22.74
2019-04-21T11:59:15.809Z,20.90
2019-04-21T12:00:15.837Z,21.59
2019-04-21T12:01:15.909Z,22.08
2019-04-21T12:02:15.639Z,21.22
2019-04-21T12:03:17.055Z,20.74
2019-04-21T12:04:16.158Z,19.96
2019-04-21T12:05:15.467Z,20.94
2019-04-21T12:06:15.554Z,20.56
2019-04-21T12:07:15.533Z,19.89
2019-04-21T12:08:22.974Z,20.18
2019-04-21T12:09:15.246Z,19.90
2019-04-21T12:10:15.500Z,19.51
2019-04-21T12:11:15.855Z,18.65
2019-04-21T12:12:15.156Z,18.35
2019-04-21T12:13:16.163Z,17.58
2019-04-21T12:14:16.180Z,18.07
2019-04-21T12:15:14.920Z,18.66
2019-04-21T12:16:15.028Z,18.66
2019-04-21T12:17:16.058Z,17.70
2019-04-21T12:18:15.539Z,16.93
2019-04-21T12:19:14.692Z,17.40
2019-04-21T12:20:14.830Z,17.60
2019-04-21T12:21:15.701Z,18.48
2019-04-21T12:22:21.620Z,17.90
2019-04-21T12:23:14.504Z,17.70
2019-04-21T12:24:15.228Z,17.02
2019-04-21T12:25:15.494Z,17.02
2019-04-21T12:26:14.318Z,16.93
2019-04-21T12:27:14.269Z,16.35
2019-04-21T12:28:14.331Z,16.36
2019-04-21T12:29:14.581Z,17.33
2019-04-21T12:30:14.115Z,17.24
2019-04-21T12:31:14.058Z,17.14
2019-04-21T12:32:14.006Z,17.34
2019-04-21T12:33:14.103Z,16.56
2019-04-21T12:34:14.172Z,16.36
2019-04-21T12:35:13.847Z,16.66
2019-04-21T12:36:13.910Z,15.59
2019-04-21T12:37:15.080Z,16.66
2019-04-21T12:38:13.690Z,17.35
2019-04-21T12:39:14.913Z,17.35
2019-04-21T12:40:14.709Z,16.37
2019-04-21T12:41:14.803Z,16.67
2019-04-21T12:42:14.407Z,16.38
2019-04-21T12:43:14.637Z,15.80
2019-04-21T12:44:13.378Z,14.34
2019-04-21T12:45:13.325Z,13.75
2019-04-21T12:46:13.901Z,14.33
2019-04-21T12:47:14.156Z,14.43
2019-04-21T12:48:13.797Z,14.14
2019-04-21T12:49:13.797Z,14.23
2019-04-21T12:50:13.080Z,13.65
2019-04-21T12:51:13.017Z,13.95
2019-04-21T12:52:13.542Z,14.43
2019-04-21T12:53:15.550Z,14.53
2019-04-21T12:54:12.865Z,14.14
2019-04-21T12:55:13.520Z,14.14
2019-04-21T12:56:13.705Z,14.44
2019-04-21T12:57:13.785Z,14.16
2019-04-21T12:58:13.151Z,14.55
2019-04-21T12:59:12.608Z,14.56
2019-04-21T13:00:13.138Z,14.95
2019-04-21T13:01:12.620Z,14.36
2019-04-21T13:02:13.634Z,15.54
2019-04-21T13:03:12.395Z,15.25
2019-04-21T13:04:13.409Z,14.76
2019-04-21T13:05:13.342Z,15.35
2019-04-21T13:06:12.245Z,14.18
2019-04-21T13:07:13.300Z,13.99
2019-04-21T13:08:13.383Z,13.99
2019-04-21T13:09:14.979Z,12.42
2019-04-21T13:10:12.708Z,13.11
2019-04-21T13:11:13.181Z,13.98
2019-04-21T13:12:13.026Z,12.82
2019-04-21T13:13:12.183Z,13.10
2019-04-21T13:14:11.834Z,12.91
2019-04-21T13:15:11.781Z,12.62
2019-04-21T13:16:11.769Z,12.52
2019-04-21T13:17:13.029Z,12.82
2019-04-21T13:18:12.408Z,12.23
2019-04-21T13:19:11.627Z,12.82
2019-04-21T13:20:11.734Z,12.43
2019-04-21T13:21:12.054Z,12.63
2019-04-21T13:22:12.194Z,12.82
2019-04-21T13:23:12.229Z,12.63
2019-04-21T13:24:11.628Z,12.54
2019-04-21T13:25:11.902Z,12.43
2019-04-21T13:26:11.447Z,12.43
2019-04-21T13:27:12.707Z,12.63
2019-04-21T13:28:12.415Z,12.14
2019-04-21T13:29:12.259Z,12.83
2019-04-21T13:30:11.043Z,13.23
2019-04-21T13:31:11.998Z,12.44
2019-04-21T13:32:12.444Z,13.33
2019-04-21T13:33:11.274Z,12.35
2019-04-21T13:34:10.813Z,11.96
2019-04-21T13:35:10.866Z,12.05
2019-04-21T13:36:11.747Z,12.35
2019-04-21T13:37:11.937Z,13.04
2019-04-21T13:38:20.027Z,12.35
2019-04-21T13:39:38.215Z,12.66
2019-04-21T13:40:29.256Z,13.05
2019-04-21T13:41:28.612Z,12.37
2019-04-21T13:42:17.402Z,12.17
2019-04-21T13:43:12.278Z,11.29
2019-04-21T13:44:10.981Z,11.49
2019-04-21T13:45:10.296Z,11.88
2019-04-21T13:46:10.267Z,11.98
2019-04-21T13:47:10.460Z,11.59
2019-04-21T13:48:10.598Z,11.88
2019-04-21T13:49:11.494Z,11.69
2019-04-21T13:50:11.205Z,11.10
2019-04-21T13:51:11.204Z,11.30
2019-04-21T13:52:11.034Z,10.61
2019-04-21T13:53:09.856Z,10.71
2019-04-21T13:54:09.807Z,10.81
2019-04-21T13:55:09.768Z,10.12
2019-04-21T13:56:10.782Z,10.61
2019-04-21T13:57:10.489Z,11.11
2019-04-21T13:58:10.429Z,10.61
2019-04-21T13:59:10.581Z,10.22
2019-04-21T14:00:10.915Z,10.52
2019-04-21T14:01:09.706Z,10.13